createdAt,value
2018-08-03T00:00:34.295Z,1000.96
2018-08-03T00:01:44.390Z,1000.99
2018-08-03T00:02:54.461Z,1001
2018-08-03T00:04:04.589Z,1000.94
2018-08-03T00:05:14.680Z,1000.98
2018-08-03T00:06:24.505Z,1000.94
2018-08-03T00:07:34.588Z,1000.97
2018-08-03T00:08:44.389Z,1000.99
2018-08-03T00:09:54.456Z,1000.99
2018-08-03T00:11:04.528Z,1000.98
2018-08-03T00:12:14.589Z,1000.99
2018-08-03T00:13:24.401Z,1000.95
2018-08-03T00:14:34.469Z,1000.97
2018-08-03T00:15:44.593Z,1000.94
2018-08-03T00:16:54.159Z,1000.93
2018-08-03T00:18:04.013Z,1000.91
2018-08-03T00:19:14.104Z,1000.87
2018-08-03T00:20:24.184Z,1000.86
2018-08-03T00:21:34.273Z,1000.85
2018-08-03T00:22:44.335Z,1000.83
2018-08-03T00:23:54.405Z,1000.83
2018-08-03T00:25:04.478Z,1000.82
2018-08-03T00:26:14.568Z,1000.86
2018-08-03T00:27:24.375Z,1000.82
2018-08-03T00:28:33.940Z,1000.82
2018-08-03T00:29:43.752Z,1000.84
2018-08-03T00:30:53.821Z,1000.84
2018-08-03T00:32:03.883Z,1000.83
2018-08-03T00:33:13.709Z,1000.8
2018-08-03T00:34:23.786Z,1000.85
2018-08-03T00:35:33.931Z,1000.83
2018-08-03T00:36:44.011Z,1000.76
2018-08-03T00:37:53.819Z,1000.79
2018-08-03T00:39:03.894Z,1000.79
2018-08-03T00:40:13.967Z,1000.77
2018-08-03T00:41:24.037Z,1000.77
2018-08-03T00:42:34.147Z,1000.78
2018-08-03T00:43:44.245Z,1000.83
2018-08-03T00:44:54.044Z,1000.8
2018-08-03T00:46:04.118Z,1000.82
2018-08-03T00:47:14.213Z,1000.8
2018-08-03T00:48:24.287Z,1000.77
2018-08-03T00:49:34.109Z,1000.78
2018-08-03T00:50:44.185Z,1000.83
2018-08-03T00:51:54.257Z,1000.82
2018-08-03T00:53:04.358Z,1000.8
2018-08-03T00:54:14.412Z,1000.81
2018-08-03T00:55:24.217Z,1000.84
2018-08-03T00:56:34.294Z,1000.83
2018-08-03T00:57:44.370Z,1000.84
2018-08-03T00:58:54.447Z,1000.81
2018-08-03T01:00:04.525Z,1000.82
2018-08-03T01:01:14.595Z,1000.81
2018-08-03T01:02:24.663Z,1000.82
2018-08-03T01:03:34.219Z,1000.86
2018-08-03T01:04:44.303Z,1000.84
2018-08-03T01:05:54.378Z,1000.83
2018-08-03T01:07:04.445Z,1000.88
2018-08-03T01:08:14.531Z,1000.89
2018-08-03T01:09:24.611Z,1000.9
2018-08-03T01:10:33.910Z,1000.91
2018-08-03T01:11:43.990Z,1000.91
2018-08-03T01:12:54.077Z,1000.92
2018-08-03T01:14:04.387Z,1000.92
2018-08-03T01:15:14.484Z,1000.9
2018-08-03T01:16:24.290Z,1000.88
2018-08-03T01:17:34.105Z,1000.91
2018-08-03T01:18:44.179Z,1000.94
2018-08-03T01:19:54.249Z,1000.91
2018-08-03T01:21:04.055Z,1000.93
2018-08-03T01:22:13.856Z,1000.9
2018-08-03T01:23:23.932Z,1000.93
2018-08-03T01:24:33.743Z,1000.92
2018-08-03T01:25:43.849Z,1000.92
2018-08-03T01:26:53.933Z,1000.92
2018-08-03T01:28:04.036Z,1000.92
2018-08-03T01:29:13.851Z,1000.92
2018-08-03T01:30:23.960Z,1000.94
2018-08-03T01:31:34.034Z,1000.91
2018-08-03T01:32:43.867Z,1000.94
2018-08-03T01:33:53.946Z,1000.92
2018-08-03T01:35:03.771Z,1000.9
2018-08-03T01:36:13.845Z,1000.91
2018-08-03T01:37:23.932Z,1000.86
2018-08-03T01:38:33.735Z,1000.87
2018-08-03T01:39:43.827Z,1000.88
2018-08-03T01:40:53.921Z,1000.88
2018-08-03T01:42:04.013Z,1000.86
2018-08-03T01:43:14.085Z,1000.9
2018-08-03T01:44:24.159Z,1000.9
2018-08-03T01:45:34.235Z,1000.92
2018-08-03T01:46:44.308Z,1000.94
2018-08-03T01:47:54.155Z,1000.95
2018-08-03T01:49:03.978Z,1000.96
2018-08-03T01:50:13.788Z,1000.98
2018-08-03T01:51:23.867Z,1000.97
2018-08-03T01:52:33.968Z,1000.99
2018-08-03T01:53:43.749Z,1000.99
2018-08-03T01:54:53.562Z,1001
2018-08-03T01:56:03.377Z,1000.99
2018-08-03T01:57:13.449Z,1000.98
2018-08-03T01:58:23.501Z,1000.99
2018-08-03T01:59:33.573Z,1001
2018-08-03T02:00:43.653Z,1001
2018-08-03T02:01:53.457Z,1001.02
2018-08-03T02:03:03.003Z,1000.99
2018-08-03T02:04:13.246Z,1000.98
2018-08-03T02:05:23.315Z,1000.98
2018-08-03T02:06:33.406Z,1000.96
2018-08-03T02:07:43.024Z,1000.98
2018-08-03T02:08:52.830Z,1000.97
2018-08-03T02:10:02.914Z,1000.96
2018-08-03T02:11:12.994Z,1000.95
2018-08-03T02:12:23.126Z,1000.94
2018-08-03T02:13:33.213Z,1000.97
2018-08-03T02:14:43.295Z,1001.01
2018-08-03T02:15:53.370Z,1000.95
2018-08-03T02:17:03.450Z,1000.97
2018-08-03T02:18:13.275Z,1000.93
2018-08-03T02:19:23.347Z,1000.97
2018-08-03T02:20:33.415Z,1000.98
2018-08-03T02:21:43.486Z,1001.01
2018-08-03T02:22:53.287Z,1000.99
2018-08-03T02:24:03.092Z,1001.03
2018-08-03T02:25:12.895Z,1001.07
2018-08-03T02:26:22.704Z,1001.06
2018-08-03T02:27:32.784Z,1001.07
2018-08-03T02:28:42.603Z,1001.06
2018-08-03T02:29:52.674Z,1001.04
2018-08-03T02:31:02.485Z,1001.01
2018-08-03T02:32:12.564Z,1001.04
2018-08-03T02:33:22.639Z,1001.03
2018-08-03T02:34:32.457Z,1001.02
2018-08-03T02:35:42.548Z,1001.02
2018-08-03T02:36:52.651Z,1001.03
2018-08-03T02:38:02.497Z,1001.05
2018-08-03T02:39:12.585Z,1001.02
2018-08-03T02:40:22.689Z,1001.05
2018-08-03T02:41:32.765Z,1001.05
2018-08-03T02:42:42.853Z,1001.05
2018-08-03T02:43:52.951Z,1001.07
2018-08-03T02:45:03.048Z,1001.07
2018-08-03T02:46:13.166Z,1001.05
2018-08-03T02:47:23.248Z,1001.06
2018-08-03T02:48:33.063Z,1001.07
2018-08-03T02:49:43.121Z,1001.01
2018-08-03T02:50:52.930Z,1000.99
2018-08-03T02:52:03.031Z,1001.03
2018-08-03T02:53:12.840Z,1001.05
2018-08-03T02:54:22.932Z,1001.06
2018-08-03T02:55:33.044Z,1001.09
2018-08-03T02:56:43.100Z,1001.07
2018-08-03T02:57:53.159Z,1001.07
2018-08-03T02:59:03.249Z,1001.07
2018-08-03T03:00:13.311Z,1001.07
2018-08-03T03:01:23.383Z,1001.1
2018-08-03T03:02:33.509Z,1001.14
2018-08-03T03:34:58.296Z,1001.11
2018-08-03T03:36:08.360Z,1001.13
2018-08-03T03:37:18.430Z,1001.13
2018-08-03T03:38:28.495Z,1001.16
2018-08-03T03:39:38.560Z,1001.17
2018-08-03T03:40:48.646Z,1001.2
2018-08-03T03:41:58.497Z,1001.19
2018-08-03T03:43:08.630Z,1001.19
2018-08-03T03:44:18.451Z,1001.19
2018-08-03T03:45:28.294Z,1001.19
2018-08-03T03:46:38.671Z,1001.19
2018-08-03T03:47:48.754Z,1001.19
2018-08-03T03:48:58.572Z,1001.22
2018-08-03T03:50:08.639Z,1001.22
2018-08-03T03:51:18.716Z,1001.23
2018-08-03T03:52:28.809Z,1001.25
2018-08-03T03:53:38.881Z,1001.22
2018-08-03T03:54:48.946Z,1001.24
2018-08-03T03:55:58.758Z,1001.23
2018-08-03T03:57:08.845Z,1001.22
2018-08-03T03:58:18.924Z,1001.2
2018-08-03T03:59:29.004Z,1001.21
2018-08-03T04:00:38.820Z,1001.2
2018-08-03T04:01:48.632Z,1001.19
2018-08-03T04:02:58.703Z,1001.17
2018-08-03T04:04:08.790Z,1001.22
2018-08-03T04:05:18.860Z,1001.25
2018-08-03T04:06:28.938Z,1001.26
2018-08-03T04:07:39.014Z,1001.28
2018-08-03T04:08:49.087Z,1001.26
2018-08-03T04:09:58.944Z,1001.3
2018-08-03T04:11:08.776Z,1001.26
2018-08-03T04:12:18.352Z,1001.27
2018-08-03T04:13:28.748Z,1001.27
2018-08-03T04:14:41.324Z,1001.26
2018-08-03T04:15:52.989Z,1001.25
2018-08-03T04:17:02.791Z,1001.3
2018-08-03T04:18:12.891Z,1001.3
2018-08-03T04:19:22.723Z,1001.31
2018-08-03T04:20:32.798Z,1001.32
2018-08-03T04:21:42.900Z,1001.34
2018-08-03T04:22:52.968Z,1001.35
2018-08-03T04:24:03.051Z,1001.35
2018-08-03T04:25:13.127Z,1001.43
2018-08-03T04:26:22.950Z,1001.41
2018-08-03T04:27:33.036Z,1001.45
2018-08-03T04:28:43.116Z,1001.45
2018-08-03T04:29:52.942Z,1001.52
2018-08-03T04:31:03.021Z,1001.59
2018-08-03T04:32:12.823Z,1001.64
2018-08-03T04:33:22.636Z,1001.61
2018-08-03T04:34:32.726Z,1001.59
2018-08-03T04:35:42.799Z,1001.62
2018-08-03T04:36:52.890Z,1001.62
2018-08-03T04:38:02.969Z,1001.62
2018-08-03T04:39:13.157Z,1001.52
2018-08-03T04:40:23.288Z,1001.53
2018-08-03T04:41:33.377Z,1001.51
2018-08-03T04:42:43.452Z,1001.51
2018-08-03T04:43:53.538Z,1001.55
2018-08-03T04:45:03.607Z,1001.52
2018-08-03T04:46:12.904Z,1001.52
2018-08-03T04:47:22.471Z,1001.55
2018-08-03T04:48:32.347Z,1001.49
2018-08-03T04:49:42.809Z,1001.59
2018-08-03T04:50:52.898Z,1001.59
2018-08-03T04:52:02.970Z,1001.58
2018-08-03T04:53:12.785Z,1001.66
2018-08-03T04:54:22.856Z,1001.64
2018-08-03T04:55:32.671Z,1001.62
2018-08-03T04:56:42.744Z,1001.65
2018-08-03T04:57:52.808Z,1001.71
2018-08-03T04:59:02.893Z,1001.64
2018-08-03T05:00:12.964Z,1001.66
2018-08-03T05:01:23.059Z,1001.7
2018-08-03T05:02:32.609Z,1001.64
2018-08-03T05:03:42.438Z,1001.67
2018-08-03T05:04:52.046Z,1001.68
2018-08-03T05:06:02.235Z,1001.68
2018-08-03T05:07:12.043Z,1001.82
2018-08-03T05:08:21.865Z,1001.96
2018-08-03T05:09:31.952Z,1001.88
2018-08-03T05:10:41.762Z,1001.81
2018-08-03T05:11:51.838Z,1001.83
2018-08-03T05:13:01.924Z,1002.02
2018-08-03T05:14:11.994Z,1002.16
2018-08-03T05:15:22.137Z,1002.33
2018-08-03T05:16:32.435Z,1002.24
2018-08-03T05:17:42.527Z,1002.23
2018-08-03T05:18:52.628Z,1002.12
2018-08-03T05:20:02.714Z,1002.11
2018-08-03T05:21:12.790Z,1002.16
2018-08-03T05:22:22.870Z,1002.22
2018-08-03T05:23:32.678Z,1002.3
2018-08-03T05:24:42.749Z,1002.18
2018-08-03T05:25:52.802Z,1002.18
2018-08-03T05:27:02.884Z,1002.13
2018-08-03T05:28:12.963Z,1002.18
2018-08-03T05:29:22.796Z,1002.14
2018-08-03T05:30:32.865Z,1002.03
2018-08-03T05:31:42.949Z,1001.97
2018-08-03T05:32:53.039Z,1002.09
2018-08-03T05:34:03.107Z,1002.11
2018-08-03T05:35:12.922Z,1002.26
2018-08-03T05:36:23.271Z,1002.28
2018-08-03T05:37:33.658Z,1002.22
2018-08-03T05:38:43.717Z,1002.21
2018-08-03T05:39:53.812Z,1001.99
2018-08-03T05:41:03.900Z,1001.86
2018-08-03T05:42:13.991Z,1001.94
2018-08-03T05:43:24.165Z,1002.03
2018-08-03T05:44:34.267Z,1002.04
2018-08-03T05:45:44.351Z,1002.06
2018-08-03T05:46:54.425Z,1002.15
2018-08-03T05:48:04.528Z,1002.2
2018-08-03T05:49:14.620Z,1002.26
2018-08-03T05:50:24.714Z,1002.29
2018-08-03T05:51:34.542Z,1002.27
2018-08-03T05:52:44.617Z,1002.29
2018-08-03T05:53:54.427Z,1002.27
2018-08-03T05:55:04.246Z,1002.28
2018-08-03T05:56:14.435Z,1002.25
2018-08-03T05:57:24.498Z,1002.26
2018-08-03T05:58:34.573Z,1002.23
2018-08-03T05:59:44.392Z,1002.21
2018-08-03T06:00:54.245Z,1002.25
2018-08-03T06:02:04.321Z,1002.17
2018-08-03T06:03:14.399Z,1002.19
2018-08-03T06:04:24.500Z,1002.15
2018-08-03T06:05:34.598Z,1002.12
2018-08-03T06:06:44.662Z,1002.06
2018-08-03T06:07:54.750Z,1002.02
2018-08-03T06:09:04.926Z,1001.98
2018-08-03T06:10:15.007Z,1001.98
2018-08-03T06:11:24.834Z,1002.03
2018-08-03T06:12:34.396Z,1002.03
2018-08-03T06:13:44.460Z,1002.06
2018-08-03T06:14:54.550Z,1002.03
2018-08-03T06:16:04.725Z,1002.01
2018-08-03T06:17:14.810Z,1002.03
2018-08-03T06:18:24.625Z,1002
2018-08-03T06:19:34.710Z,1002.01
2018-08-03T06:20:44.796Z,1002.05
2018-08-03T06:21:54.728Z,1002.05
2018-08-03T06:23:04.816Z,1002.02
2018-08-03T06:24:14.948Z,1002.04
2018-08-03T06:25:25.036Z,1002.03
2018-08-03T06:26:35.122Z,1001.99
2018-08-03T06:27:45.188Z,1002.01
2018-08-03T06:28:54.775Z,1002.04
2018-08-03T06:30:04.863Z,1002.05
2018-08-03T06:31:14.702Z,1002.05
2018-08-03T06:32:24.786Z,1002.06
2018-08-03T06:33:34.884Z,1002.08
2018-08-03T06:34:44.708Z,1002.07
2018-08-03T06:35:54.514Z,1002.11
2018-08-03T06:37:04.607Z,1002.12
2018-08-03T06:38:14.813Z,1002.07
2018-08-03T06:39:24.763Z,1002.1
2018-08-03T06:40:34.857Z,1002.1
2018-08-03T06:41:45.082Z,1002.08
2018-08-03T06:42:55.160Z,1002.14
2018-08-03T06:44:04.985Z,1002.14
2018-08-03T06:45:15.077Z,1002.18
2018-08-03T06:46:24.903Z,1002.16
2018-08-03T06:47:34.992Z,1002.16
2018-08-03T06:48:45.149Z,1002.18
2018-08-03T06:49:55.238Z,1002.22
2018-08-03T06:51:05.334Z,1002.2
2018-08-03T06:52:14.895Z,1002.16
2018-08-03T06:53:25.036Z,1002.15
2018-08-03T06:54:35.120Z,1002.15
2018-08-03T06:55:45.219Z,1002.13
2018-08-03T06:56:54.776Z,1002.18
2018-08-03T06:58:04.876Z,1002.14
2018-08-03T06:59:14.955Z,1002.13
2018-08-03T07:00:25.070Z,1002.13
2018-08-03T07:01:35.221Z,1002.16
2018-08-03T07:02:45.341Z,1002.16
2018-08-03T07:03:55.652Z,1002.13
2018-08-03T07:05:05.520Z,1002.15
2018-08-03T07:06:15.616Z,1002.15
2018-08-03T07:07:25.686Z,1002.12
2018-08-03T07:08:35.932Z,1002.15
2018-08-03T07:09:46.035Z,1002.11
2018-08-03T07:10:56.144Z,1002.1
2018-08-03T07:12:06.210Z,1002.12
2018-08-03T07:13:16.050Z,1002.13
2018-08-03T07:14:26.133Z,1002.1
2018-08-03T07:15:36.515Z,1002.12
2018-08-03T07:16:46.698Z,1002.09
2018-08-03T07:17:56.772Z,1002.07
2018-08-03T07:19:06.595Z,1002.1
2018-08-03T07:20:16.863Z,1002.13
2018-08-03T07:21:26.483Z,1002.12
2018-08-03T07:22:36.561Z,1002.12
2018-08-03T07:23:46.433Z,1002.13
2018-08-03T07:24:56.522Z,1002.13
2018-08-03T07:26:06.603Z,1002.11
2018-08-03T07:27:16.666Z,1002.09
2018-08-03T07:28:26.822Z,1002.15
2018-08-03T07:29:36.893Z,1002.09
2018-08-03T07:30:46.977Z,1002.09
2018-08-03T07:31:57.065Z,1002.13
2018-08-03T07:33:06.891Z,1002.09
2018-08-03T07:34:17.052Z,1002.1
2018-08-03T07:35:27.138Z,1002.11
2018-08-03T07:36:36.944Z,1002.11
2018-08-03T07:37:46.813Z,1002.05
2018-08-03T07:38:56.584Z,1002.07
2018-08-03T07:40:06.518Z,1002.09
2018-08-03T07:41:16.493Z,1002.07
2018-08-03T07:42:26.298Z,1002.06
2018-08-03T07:43:36.454Z,1002.06
2018-08-03T07:44:46.366Z,1002.04
2018-08-03T07:45:56.341Z,1002.07
2018-08-03T07:47:06.410Z,1002.05
2018-08-03T07:48:16.497Z,1002.03
2018-08-03T07:49:26.566Z,1002.05
2018-08-03T07:50:36.382Z,1002.04
2018-08-03T07:51:46.466Z,1002.01
2018-08-03T07:52:56.274Z,1001.99
2018-08-03T07:54:06.368Z,1002.03
2018-08-03T07:55:16.174Z,1002.02
2018-08-03T07:56:26.250Z,1002.02
2018-08-03T07:57:36.337Z,1002.03
2018-08-03T07:58:46.421Z,1002.09
2018-08-03T07:59:56.534Z,1002.07
2018-08-03T08:01:06.651Z,1002.06
2018-08-03T08:02:16.773Z,1002
2018-08-03T08:03:26.905Z,1002.01
2018-08-03T08:04:36.993Z,1002.05
2018-08-03T08:05:46.547Z,1002.03
2018-08-03T08:06:56.638Z,1001.95
2018-08-03T08:08:06.739Z,1001.98
2018-08-03T08:09:16.927Z,1001.95
2018-08-03T08:10:27.025Z,1001.95
2018-08-03T08:11:37.106Z,1001.92
2018-08-03T08:12:46.671Z,1001.96
2018-08-03T08:13:56.216Z,1001.94
2018-08-03T08:15:06.313Z,1001.95
2018-08-03T08:16:16.778Z,1001.92
2018-08-03T08:17:26.595Z,1001.92
2018-08-03T08:18:36.681Z,1001.92
2018-08-03T08:19:46.779Z,1001.91
2018-08-03T08:20:56.646Z,1001.89
2018-08-03T08:22:06.277Z,1001.87
2018-08-03T08:23:16.369Z,1001.86
2018-08-03T08:24:26.199Z,1001.86
2018-08-03T08:25:36.013Z,1001.89
2018-08-03T08:26:46.112Z,1001.88
2018-08-03T08:27:56.194Z,1001.86
2018-08-03T08:29:06.273Z,1001.84
2018-08-03T08:30:16.373Z,1001.84
2018-08-03T08:31:25.976Z,1001.85
2018-08-03T08:32:36.277Z,1001.82
2018-08-03T08:33:46.359Z,1001.82
2018-08-03T08:34:56.455Z,1001.79
2018-08-03T08:36:06.547Z,1001.83
2018-08-03T08:37:16.648Z,1001.8
2018-08-03T08:38:26.790Z,1001.81
2018-08-03T08:39:36.871Z,1001.8
2018-08-03T08:40:46.433Z,1001.79
2018-08-03T08:41:56.516Z,1001.81
2018-08-03T08:43:06.590Z,1001.83
2018-08-03T08:44:16.705Z,1001.8
2018-08-03T08:45:26.772Z,1001.78
2018-08-03T08:46:36.860Z,1001.79
2018-08-03T08:47:46.951Z,1001.83
2018-08-03T08:48:57.045Z,1001.81
2018-08-03T08:50:07.312Z,1001.76
2018-08-03T08:51:17.402Z,1001.76
2018-08-03T08:52:27.476Z,1001.77
2018-08-03T08:53:37.562Z,1001.76
2018-08-03T08:54:47.696Z,1001.77
2018-08-03T08:55:58.232Z,1001.73
2018-08-03T08:57:08.299Z,1001.74
2018-08-03T08:58:18.100Z,1001.78
2018-08-03T08:59:28.216Z,1001.75
2018-08-03T09:00:38.615Z,1001.73
2018-08-03T09:01:48.875Z,1001.72
2018-08-03T09:02:58.691Z,1001.68
2018-08-03T09:04:08.272Z,1001.77
2018-08-03T09:05:18.355Z,1001.72
2018-08-03T09:06:28.449Z,1001.72
2018-08-03T09:07:38.625Z,1001.74
2018-08-03T09:08:49.215Z,1001.72
2018-08-03T09:09:59.358Z,1001.73
2018-08-03T09:11:09.190Z,1001.73
2018-08-03T09:12:19.278Z,1001.69
2018-08-03T09:13:29.378Z,1001.73
2018-08-03T09:14:39.492Z,1001.74
2018-08-03T09:15:49.583Z,1001.74
2018-08-03T09:16:59.666Z,1001.77
2018-08-03T09:18:09.780Z,1001.72
2018-08-03T09:19:19.938Z,1001.72
2018-08-03T09:20:30.016Z,1001.69
2018-08-03T09:21:39.848Z,1001.67
2018-08-03T09:22:49.670Z,1001.7
2018-08-03T09:23:59.746Z,1001.63
2018-08-03T09:25:09.573Z,1001.69
2018-08-03T09:26:19.661Z,1001.66
2018-08-03T09:27:29.751Z,1001.68
2018-08-03T09:28:39.579Z,1001.59
2018-08-03T09:29:49.668Z,1001.65
2018-08-03T09:30:59.518Z,1001.54
2018-08-03T09:32:09.984Z,1001.58
2018-08-03T09:33:20.076Z,1001.55
2018-08-03T09:34:29.914Z,1001.55
2018-08-03T09:35:39.758Z,1001.58
2018-08-03T09:36:49.602Z,1001.51
2018-08-03T09:37:59.746Z,1001.47
2018-08-03T09:39:09.842Z,1001.51
2018-08-03T09:40:19.923Z,1001.52
2018-08-03T09:41:29.997Z,1001.5
2018-08-03T09:42:40.094Z,1001.49
2018-08-03T09:43:50.281Z,1001.53
2018-08-03T09:45:00.387Z,1001.51
2018-08-03T09:46:10.748Z,1001.54
2018-08-03T09:47:20.838Z,1001.51
2018-08-03T09:48:30.651Z,1001.52
2018-08-03T09:49:40.752Z,1001.53
2018-08-03T09:50:50.835Z,1001.53
2018-08-03T09:52:00.917Z,1001.51
2018-08-03T09:53:10.745Z,1001.48
2018-08-03T09:54:20.867Z,1001.44
2018-08-03T09:55:31.191Z,1001.46
2018-08-03T09:56:41.278Z,1001.45
2018-08-03T09:57:51.372Z,1001.43
2018-08-03T09:59:01.198Z,1001.46
2018-08-03T10:00:11.335Z,1001.49
2018-08-03T10:01:21.415Z,1001.37
2018-08-03T10:02:30.988Z,1001.46
2018-08-03T10:03:40.816Z,1001.41
2018-08-03T10:04:50.368Z,1001.39
2018-08-03T10:06:00.438Z,1001.35
2018-08-03T10:07:10.558Z,1001.37
2018-08-03T10:08:20.786Z,1001.35
2018-08-03T10:09:30.648Z,1001.38
2018-08-03T10:10:40.739Z,1001.41
2018-08-03T10:11:50.560Z,1001.38
2018-08-03T10:13:00.674Z,1001.39
2018-08-03T10:14:10.808Z,1001.39
2018-08-03T10:15:20.888Z,1001.32
2018-08-03T10:16:31.248Z,1001.31
2018-08-03T10:17:41.340Z,1001.29
2018-08-03T10:18:50.890Z,1001.3
2018-08-03T10:20:00.732Z,1001.24
2018-08-03T10:21:10.821Z,1001.26
2018-08-03T10:22:20.895Z,1001.31
2018-08-03T10:23:31.412Z,1001.32
2018-08-03T10:24:40.992Z,1001.28
2018-08-03T10:25:50.812Z,1001.3
2018-08-03T10:27:00.893Z,1001.24
2018-08-03T10:28:10.731Z,1001.23
2018-08-03T10:29:20.846Z,1001.21
2018-08-03T10:30:31.050Z,1001.18
2018-08-03T10:31:41.203Z,1001.2
2018-08-03T10:32:51.313Z,1001.15
2018-08-03T10:34:01.133Z,1001.17
2018-08-03T10:35:11.049Z,1001.14
2018-08-03T10:36:21.161Z,1001.06
2018-08-03T10:37:31.244Z,1001.13
2018-08-03T10:38:41.326Z,1001.12
2018-08-03T10:39:51.175Z,1001.08
2018-08-03T10:41:01.274Z,1001.09
2018-08-03T10:42:11.163Z,1001.08
2018-08-03T10:43:21.237Z,1001.12
2018-08-03T10:44:31.326Z,1001.05
2018-08-03T10:45:41.402Z,1001.04
2018-08-03T10:46:51.502Z,1001.02
2018-08-03T10:48:01.730Z,1000.96
2018-08-03T10:49:11.821Z,1001.01
2018-08-03T10:50:21.906Z,1000.93
2018-08-03T10:51:31.825Z,1000.92
2018-08-03T10:52:41.992Z,1000.92
2018-08-03T10:53:52.073Z,1000.9
2018-08-03T10:55:01.896Z,1000.89
2018-08-03T10:56:11.741Z,1000.92
2018-08-03T10:57:21.859Z,1000.87
2018-08-03T10:58:31.931Z,1000.93
2018-08-03T10:59:41.752Z,1000.89
2018-08-03T11:00:51.833Z,1000.83
2018-08-03T11:02:01.928Z,1000.86
2018-08-03T11:03:12.022Z,1000.86
2018-08-03T11:04:21.844Z,1000.85
2018-08-03T11:05:31.681Z,1000.88
2018-08-03T11:06:41.777Z,1000.84
2018-08-03T11:07:51.933Z,1000.85
2018-08-03T11:09:02.031Z,1000.88
2018-08-03T11:10:12.117Z,1000.88
2018-08-03T11:11:22.207Z,1000.85
2018-08-03T11:12:32.294Z,1000.87
2018-08-03T11:13:42.439Z,1000.82
2018-08-03T11:14:53.255Z,1000.82
2018-08-03T11:16:03.341Z,1000.82
2018-08-03T11:17:13.474Z,1000.81
2018-08-03T11:18:23.605Z,1000.83
2018-08-03T11:19:33.177Z,1000.81
2018-08-03T11:20:43.259Z,1000.82
2018-08-03T11:21:53.084Z,1000.8
2018-08-03T11:23:03.204Z,1000.8
2018-08-03T11:24:13.104Z,1000.71
2018-08-03T11:25:23.939Z,1000.73
2018-08-03T11:26:34.026Z,1000.64
2018-08-03T11:27:44.109Z,1000.65
2018-08-03T11:28:54.248Z,1000.66
2018-08-03T11:30:04.321Z,1000.63
2018-08-03T11:31:14.399Z,1000.62
2018-08-03T11:32:24.227Z,1000.66
2018-08-03T11:33:34.329Z,1000.65
2018-08-03T11:34:44.422Z,1000.6
2018-08-03T11:35:54.506Z,1000.57
2018-08-03T11:37:04.604Z,1000.53
2018-08-03T11:38:14.706Z,1000.51
2018-08-03T11:39:24.791Z,1000.48
2018-08-03T11:40:34.341Z,1000.49
2018-08-03T11:41:44.569Z,1000.47
2018-08-03T11:42:54.660Z,1000.46
2018-08-03T11:44:04.750Z,1000.44
2018-08-03T11:45:14.831Z,1000.43
2018-08-03T11:46:24.661Z,1000.36
2018-08-03T11:47:34.492Z,1000.37
2018-08-03T11:48:44.325Z,1000.34
2018-08-03T11:49:54.406Z,1000.34
2018-08-03T11:51:04.495Z,1000.34
2018-08-03T11:52:14.625Z,1000.39
2018-08-03T11:53:24.478Z,1000.38
2018-08-03T11:54:34.299Z,1000.39
2018-08-03T11:55:45.111Z,1000.38
2018-08-03T11:56:54.928Z,1000.34
2018-08-03T11:58:05.034Z,1000.35
2018-08-03T11:59:15.128Z,1000.33
2018-08-03T12:00:25.209Z,1000.29
2018-08-03T12:01:35.045Z,1000.24
2018-08-03T12:02:45.156Z,1000.27
2018-08-03T12:03:55.002Z,1000.27
2018-08-03T12:05:05.078Z,1000.24
2018-08-03T12:06:15.155Z,1000.2
2018-08-03T12:07:25.381Z,1000.22
2018-08-03T12:08:35.483Z,1000.24
2018-08-03T12:09:45.572Z,1000.2
2018-08-03T12:10:55.643Z,1000.26
2018-08-03T12:12:05.726Z,1000.25
2018-08-03T12:13:15.816Z,1000.19
2018-08-03T12:14:25.657Z,1000.25
2018-08-03T12:15:35.478Z,1000.18
2018-08-03T12:16:45.352Z,1000.25
2018-08-03T12:17:55.498Z,1000.22
2018-08-03T12:19:05.881Z,1000.15
2018-08-03T12:20:15.709Z,1000.13
2018-08-03T12:21:25.798Z,1000.18
2018-08-03T12:22:35.617Z,1000.11
2018-08-03T12:23:45.769Z,1000.1
2018-08-03T12:24:56.151Z,1000.09
2018-08-03T12:26:06.238Z,1000.08
2018-08-03T12:27:16.357Z,1000.08
2018-08-03T12:28:26.448Z,1000.03
2018-08-03T12:29:36.539Z,1000.08
2018-08-03T12:30:46.343Z,1000.01
2018-08-03T12:31:56.436Z,1000.02
2018-08-03T12:33:06.590Z,1000
2018-08-03T12:34:16.679Z,1000.02
2018-08-03T12:35:26.759Z,1000.03
2018-08-03T12:36:36.875Z,1000
2018-08-03T12:37:46.966Z,1000
2018-08-03T12:38:57.124Z,999.93
2018-08-03T12:40:06.949Z,999.95
2018-08-03T12:41:16.510Z,999.96
2018-08-03T12:42:26.335Z,999.95
2018-08-03T12:43:35.920Z,999.96
2018-08-03T12:44:46.035Z,999.93
2018-08-03T12:45:55.908Z,999.94
2018-08-03T12:47:06.051Z,999.9
2018-08-03T12:48:16.133Z,999.89
2018-08-03T12:49:25.961Z,999.88
2018-08-03T12:50:36.062Z,999.84
2018-08-03T12:51:46.201Z,999.82
2018-08-03T12:52:56.076Z,999.83
2018-08-03T12:54:06.471Z,999.8
2018-08-03T12:55:16.568Z,999.88
2018-08-03T12:56:26.387Z,999.82
2018-08-03T12:57:36.631Z,999.81
2018-08-03T12:58:46.463Z,999.87
2018-08-03T12:59:56.569Z,999.85
2018-08-03T13:01:06.699Z,999.86
2018-08-03T13:02:17.085Z,999.82
2018-08-03T13:03:27.207Z,999.79
2018-08-03T13:04:37.290Z,999.78
2018-08-03T13:05:47.408Z,999.81
2018-08-03T13:06:57.508Z,999.82
2018-08-03T13:08:08.032Z,999.79
2018-08-03T13:09:18.706Z,999.79
2018-08-03T13:10:28.795Z,999.79
2018-08-03T13:11:38.366Z,999.78
2018-08-03T13:12:48.488Z,999.84
2018-08-03T13:13:58.592Z,999.8
2018-08-03T13:15:08.433Z,999.81
2018-08-03T13:16:18.518Z,999.79
2018-08-03T13:17:28.351Z,999.81
2018-08-03T13:18:38.455Z,999.79
2018-08-03T13:19:48.611Z,999.82
2018-08-03T13:20:58.712Z,999.83
2018-08-03T13:22:08.827Z,999.8
2018-08-03T13:23:18.664Z,999.73
2018-08-03T13:24:28.762Z,999.78
2018-08-03T13:25:38.868Z,999.79
2018-08-03T13:26:48.707Z,999.81
2018-08-03T13:27:58.538Z,999.75
2018-08-03T13:29:08.645Z,999.72
2018-08-03T13:30:18.806Z,999.73
2018-08-03T13:31:28.646Z,999.72
2018-08-03T13:32:38.472Z,999.67
2018-08-03T13:33:48.584Z,999.68
2018-08-03T13:34:58.726Z,999.68
2018-08-03T13:36:08.812Z,999.66
2018-08-03T13:37:19.198Z,999.68
2018-08-03T13:38:29.299Z,999.61
2018-08-03T13:39:38.898Z,999.61
2018-08-03T13:40:48.829Z,999.57
2018-08-03T13:41:58.935Z,999.57
2018-08-03T13:43:08.596Z,999.54
2018-08-03T13:44:18.448Z,999.48
2018-08-03T13:45:28.562Z,999.48
2018-08-03T13:46:38.397Z,999.49
2018-08-03T13:47:48.497Z,999.5
2018-08-03T13:48:58.633Z,999.48
2018-08-03T13:50:08.754Z,999.48
2018-08-03T13:51:18.425Z,999.49
2018-08-03T13:52:28.260Z,999.49
2018-08-03T13:53:38.384Z,999.46
2018-08-03T13:54:48.530Z,999.52
2018-08-03T13:55:58.611Z,999.47
2018-08-03T13:57:08.730Z,999.5
2018-08-03T13:58:18.823Z,999.51
2018-08-03T13:59:28.921Z,999.43
2018-08-03T14:00:39.021Z,999.43
2018-08-03T14:01:49.116Z,999.44
2018-08-03T14:02:59.224Z,999.44
2018-08-03T14:04:09.319Z,999.33
2018-08-03T14:05:19.471Z,999.29
2018-08-03T14:06:29.366Z,999.33
2018-08-03T14:07:39.484Z,999.31
2018-08-03T14:08:49.587Z,999.32
2018-08-03T14:09:59.456Z,999.31
2018-08-03T14:11:09.299Z,999.35
2018-08-03T14:12:19.416Z,999.32
2018-08-03T14:13:29.485Z,999.28
2018-08-03T14:14:39.573Z,999.21
2018-08-03T14:15:49.693Z,999.22
2018-08-03T14:16:59.280Z,999.21
2018-08-03T14:18:09.404Z,999.18
2018-08-03T14:19:19.502Z,999.19
2018-08-03T14:20:29.602Z,999.16
2018-08-03T14:21:39.751Z,999.13
2018-08-03T14:22:49.846Z,999.13
2018-08-03T14:23:59.991Z,999.12
2018-08-03T14:25:10.089Z,999.06
2018-08-03T14:26:20.225Z,999.05
2018-08-03T14:27:30.332Z,999.07
2018-08-03T14:28:40.420Z,999.05
2018-08-03T14:29:50.581Z,999.03
2018-08-03T14:31:00.474Z,999.01
2018-08-03T14:32:10.578Z,999
2018-08-03T14:33:20.679Z,999.06
2018-08-03T14:34:30.787Z,999
2018-08-03T14:35:40.932Z,999.01
2018-08-03T14:36:51.145Z,998.99
2018-08-03T14:38:01.318Z,998.97
2018-08-03T14:39:11.668Z,998.97
2018-08-03T14:40:21.772Z,998.97
2018-08-03T14:41:31.926Z,998.98
2018-08-03T14:42:42.124Z,998.95
2018-08-03T14:43:51.968Z,998.95
2018-08-03T14:45:02.067Z,998.95